sensor_id;sensor_type;location;lat;lon;timestamp;pressure;altitude;pressure_sealevel;temperature;humidity
32324;BME280;25666;44.350;9.222;2024-01-30T00:01:41;103592.88;;;5.54;100.00
32324;BME280;25666;44.350;9.222;2024-01-30T00:04:06;103590.00;;;5.49;100.00
32324;BME280;25666;44.350;9.222;2024-01-30T00:06:32;103585.41;;;5.55;100.00
32324;BME280;25666;44.350;9.222;2024-01-30T00:08:58;103584.53;;;5.66;100.00
32324;BME280;25666;44.350;9.222;2024-01-30T00:11:23;103594.16;;;5.63;100.00
32324;BME280;25666;44.350;9.222;2024-01-30T00:13:51;103592.59;;;5.56;100.00
32324;BME280;25666;44.350;9.222;2024-01-30T00:16:21;103596.31;;;5.61;100.00
32324;BME280;25666;44.350;9.222;2024-01-30T00:18:47;103596.00;;;5.74;100.00
32324;BME280;25666;44.350;9.222;2024-01-30T00:21:13;103598.34;;;5.66;100.00
32324;BME280;25666;44.350;9.222;2024-01-30T00:23:39;103589.78;;;5.67;100.00
32324;BME280;25666;44.350;9.222;2024-01-30T00:26:04;103595.16;;;5.46;100.00
32324;BME280;25666;44.350;9.222;2024-01-30T00:28:30;103588.56;;;5.47;100.00
32324;BME280;25666;44.350;9.222;2024-01-30T00:30:56;103596.78;;;5.42;100.00
32324;BME280;25666;44.350;9.222;2024-01-30T00:33:22;103587.72;;;5.46;100.00
32324;BME280;25666;44.350;9.222;2024-01-30T00:35:47;103589.16;;;5.49;100.00
32324;BME280;25666;44.350;9.222;2024-01-30T00:38:13;103580.88;;;5.49;100.00
32324;BME280;25666;44.350;9.222;2024-01-30T00:40:38;103588.41;;;5.53;100.00
32324;BME280;25666;44.350;9.222;2024-01-30T00:43:04;103584.81;;;5.53;100.00
32324;BME280;25666;44.350;9.222;2024-01-30T00:45:29;103582.81;;;5.48;100.00
32324;BME280;25666;44.350;9.222;2024-01-30T00:47:55;103583.59;;;5.32;100.00
32324;BME280;25666;44.350;9.222;2024-01-30T00:50:20;103577.09;;;5.26;100.00
32324;BME280;25666;44.350;9.222;2024-01-30T00:52:46;103579.63;;;5.28;100.00
32324;BME280;25666;44.350;9.222;2024-01-30T00:55:12;103583.75;;;5.25;100.00
32324;BME280;25666;44.350;9.222;2024-01-30T00:57:38;103575.19;;;5.27;100.00
32324;BME280;25666;44.350;9.222;2024-01-30T01:00:04;103577.47;;;5.30;100.00
32324;BME280;25666;44.350;9.222;2024-01-30T01:02:32;103581.22;;;5.24;100.00
32324;BME280;25666;44.350;9.222;2024-01-30T01:04:57;103579.06;;;5.26;100.00
32324;BME280;25666;44.350;9.222;2024-01-30T01:07:23;103583.09;;;5.35;100.00
32324;BME280;25666;44.350;9.222;2024-01-30T01:09:48;103591.81;;;5.44;100.00
32324;BME280;25666;44.350;9.222;2024-01-30T01:12:14;103587.84;;;5.51;100.00
32324;BME280;25666;44.350;9.222;2024-01-30T01:14:39;103586.53;;;5.42;100.00
32324;BME280;25666;44.350;9.222;2024-01-30T01:17:05;103586.22;;;5.38;100.00
32324;BME280;25666;44.350;9.222;2024-01-30T01:19:30;103589.22;;;5.37;100.00
32324;BME280;25666;44.350;9.222;2024-01-30T01:21:56;103582.25;;;5.34;100.00
32324;BME280;25666;44.350;9.222;2024-01-30T01:24:22;103579.22;;;5.36;100.00
32324;BME280;25666;44.350;9.222;2024-01-30T01:26:47;103584.09;;;5.29;100.00
32324;BME280;25666;44.350;9.222;2024-01-30T01:29:13;103578.44;;;5.24;100.00
32324;BME280;25666;44.350;9.222;2024-01-30T01:31:39;103575.44;;;5.25;100.00
32324;BME280;25666;44.350;9.222;2024-01-30T01:34:11;103567.97;;;5.37;100.00
32324;BME280;25666;44.350;9.222;2024-01-30T01:36:37;103576.25;;;5.37;100.00
32324;BME280;25666;44.350;9.222;2024-01-30T01:39:03;103569.00;;;5.20;100.00
32324;BME280;25666;44.350;9.222;2024-01-30T01:41:32;103574.16;;;5.16;100.00
32324;BME280;25666;44.350;9.222;2024-01-30T01:43:59;103571.59;;;5.26;100.00
32324;BME280;25666;44.350;9.222;2024-01-30T01:46:27;103569.88;;;5.37;100.00
32324;BME280;25666;44.350;9.222;2024-01-30T01:48:53;103559.09;;;5.35;100.00
32324;BME280;25666;44.350;9.222;2024-01-30T01:51:21;103562.72;;;5.24;100.00
32324;BME280;25666;44.350;9.222;2024-01-30T01:53:47;103557.00;;;5.14;100.00
32324;BME280;25666;44.350;9.222;2024-01-30T01:56:13;103555.97;;;5.04;100.00
32324;BME280;25666;44.350;9.222;2024-01-30T01:58:38;103563.88;;;5.00;100.00
32324;BME280;25666;44.350;9.222;2024-01-30T02:01:05;103554.75;;;5.00;100.00
32324;BME280;25666;44.350;9.222;2024-01-30T02:03:31;103565.66;;;5.06;100.00
32324;BME280;25666;44.350;9.222;2024-01-30T02:05:57;103562.38;;;5.21;100.00
32324;BME280;25666;44.350;9.222;2024-01-30T02:08:24;103557.59;;;5.16;100.00
32324;BME280;25666;44.350;9.222;2024-01-30T02:10:49;103557.84;;;5.15;100.00
32324;BME280;25666;44.350;9.222;2024-01-30T02:13:15;103555.34;;;5.13;100.00
32324;BME280;25666;44.350;9.222;2024-01-30T02:15:41;103556.16;;;5.14;100.00
32324;BME280;25666;44.350;9.222;2024-01-30T02:18:06;103558.69;;;5.15;100.00
32324;BME280;25666;44.350;9.222;2024-01-30T02:20:35;103557.59;;;5.16;100.00
32324;BME280;25666;44.350;9.222;2024-01-30T02:23:02;103555.69;;;5.17;100.00
32324;BME280;25666;44.350;9.222;2024-01-30T02:25:36;103558.81;;;5.09;100.00
32324;BME280;25666;44.350;9.222;2024-01-30T02:28:02;103554.28;;;5.03;100.00
32324;BME280;25666;44.350;9.222;2024-01-30T02:30:28;103552.22;;;4.98;100.00
32324;BME280;25666;44.350;9.222;2024-01-30T02:32:53;103550.66;;;5.02;100.00
32324;BME280;25666;44.350;9.222;2024-01-30T02:35:19;103547.78;;;5.09;100.00
32324;BME280;25666;44.350;9.222;2024-01-30T02:37:44;103554.38;;;5.08;100.00
32324;BME280;25666;44.350;9.222;2024-01-30T02:40:10;103556.59;;;4.94;100.00
32324;BME280;25666;44.350;9.222;2024-01-30T02:42:35;103553.22;;;4.92;100.00
32324;BME280;25666;44.350;9.222;2024-01-30T02:45:01;103555.25;;;4.97;100.00
32324;BME280;25666;44.350;9.222;2024-01-30T02:47:26;103550.44;;;4.92;100.00
32324;BME280;25666;44.350;9.222;2024-01-30T02:49:52;103548.53;;;5.04;100.00
32324;BME280;25666;44.350;9.222;2024-01-30T02:52:17;103548.63;;;5.09;100.00
32324;BME280;25666;44.350;9.222;2024-01-30T02:54:44;103548.06;;;4.96;100.00
32324;BME280;25666;44.350;9.222;2024-01-30T02:57:10;103549.78;;;4.85;100.00
32324;BME280;25666;44.350;9.222;2024-01-30T02:59:35;103544.25;;;4.85;100.00
32324;BME280;25666;44.350;9.222;2024-01-30T03:02:01;103542.22;;;4.80;100.00
32324;BME280;25666;44.350;9.222;2024-01-30T03:04:27;103546.53;;;4.76;100.00
32324;BME280;25666;44.350;9.222;2024-01-30T03:06:52;103542.47;;;4.79;100.00
32324;BME280;25666;44.350;9.222;2024-01-30T03:09:18;103548.94;;;4.84;100.00
32324;BME280;25666;44.350;9.222;2024-01-30T03:11:43;103533.56;;;4.89;100.00
32324;BME280;25666;44.350;9.222;2024-01-30T03:14:09;103540.16;;;4.88;100.00
32324;BME280;25666;44.350;9.222;2024-01-30T03:16:37;103540.03;;;4.82;100.00
32324;BME280;25666;44.350;9.222;2024-01-30T03:19:04;103539.22;;;4.70;100.00
32324;BME280;25666;44.350;9.222;2024-01-30T03:21:30;103535.63;;;4.81;100.00
32324;BME280;25666;44.350;9.222;2024-01-30T03:23:56;103546.19;;;4.84;100.00
32324;BME280;25666;44.350;9.222;2024-01-30T03:26:21;103542.25;;;4.69;100.00
32324;BME280;25666;44.350;9.222;2024-01-30T03:28:47;103542.00;;;4.70;100.00
32324;BME280;25666;44.350;9.222;2024-01-30T03:31:14;103536.47;;;4.70;100.00
32324;BME280;25666;44.350;9.222;2024-01-30T03:33:39;103537.22;;;4.66;100.00
32324;BME280;25666;44.350;9.222;2024-01-30T03:36:05;103537.09;;;4.61;100.00
32324;BME280;25666;44.350;9.222;2024-01-30T03:38:31;103533.97;;;4.69;100.00
32324;BME280;25666;44.350;9.222;2024-01-30T03:40:58;103530.94;;;4.70;100.00
32324;BME280;25666;44.350;9.222;2024-01-30T03:43:24;103536.47;;;4.70;100.00
32324;BME280;25666;44.350;9.222;2024-01-30T03:45:50;103532.88;;;4.70;100.00
32324;BME280;25666;44.350;9.222;2024-01-30T03:48:15;103531.66;;;4.77;100.00
32324;BME280;25666;44.350;9.222;2024-01-30T03:50:41;103527.22;;;4.76;100.00
32324;BME280;25666;44.350;9.222;2024-01-30T03:53:06;103523.88;;;4.74;100.00
32324;BME280;25666;44.350;9.222;2024-01-30T03:55:32;103526.91;;;4.73;100.00
32324;BME280;25666;44.350;9.222;2024-01-30T03:57:57;103526.16;;;4.77;100.00
32324;BME280;25666;44.350;9.222;2024-01-30T04:00:23;103526.41;;;4.76;100.00
32324;BME280;25666;44.350;9.222;2024-01-30T04:02:48;103520.03;;;4.75;100.00
32324;BME280;25666;44.350;9.222;2024-01-30T04:05:16;103523.28;;;4.72;100.00
32324;BME280;25666;44.350;9.222;2024-01-30T04:07:42;103525.53;;;4.87;100.00
32324;BME280;25666;44.350;9.222;2024-01-30T04:10:09;103521.78;;;4.93;100.00
32324;BME280;25666;44.350;9.222;2024-01-30T04:12:35;103515.78;;;4.96;100.00
32324;BME280;25666;44.350;9.222;2024-01-30T04:15:01;103515.97;;;4.78;100.00
32324;BME280;25666;44.350;9.222;2024-01-30T04:17:27;103518.59;;;4.84;100.00
32324;BME280;25666;44.350;9.222;2024-01-30T04:19:54;103522.06;;;4.80;100.00
32324;BME280;25666;44.350;9.222;2024-01-30T04:22:20;103520.91;;;4.64;100.00
32324;BME280;25666;44.350;9.222;2024-01-30T04:24:45;103522.97;;;4.57;100.00
32324;BME280;25666;44.350;9.222;2024-01-30T04:27:11;103522.34;;;4.55;100.00
32324;BME280;25666;44.350;9.222;2024-01-30T04:29:36;103523.78;;;4.69;100.00
32324;BME280;25666;44.350;9.222;2024-01-30T04:32:02;103522.59;;;4.65;100.00
32324;BME280;25666;44.350;9.222;2024-01-30T04:34:28;103520.78;;;4.59;100.00
32324;BME280;25666;44.350;9.222;2024-01-30T04:36:53;103514.44;;;4.59;100.00
32324;BME280;25666;44.350;9.222;2024-01-30T04:39:19;103518.13;;;4.64;100.00
32324;BME280;25666;44.350;9.222;2024-01-30T04:41:44;103518.75;;;4.66;100.00
32324;BME280;25666;44.350;9.222;2024-01-30T04:44:10;103524.00;;;4.68;100.00
32324;BME280;25666;44.350;9.222;2024-01-30T04:46:35;103520.75;;;4.71;100.00
32324;BME280;25666;44.350;9.222;2024-01-30T04:49:01;103513.81;;;4.68;100.00
32324;BME280;25666;44.350;9.222;2024-01-30T04:51:26;103516.97;;;4.60;100.00
32324;BME280;25666;44.350;9.222;2024-01-30T04:53:52;103519.72;;;4.49;100.00
32324;BME280;25666;44.350;9.222;2024-01-30T04:56:17;103515.63;;;4.63;100.00
32324;BME280;25666;44.350;9.222;2024-01-30T04:58:43;103517.66;;;4.67;100.00
32324;BME280;25666;44.350;9.222;2024-01-30T05:01:09;103515.16;;;4.66;100.00
32324;BME280;25666;44.350;9.222;2024-01-30T05:03:34;103515.88;;;4.61;100.00
32324;BME280;25666;44.350;9.222;2024-01-30T05:06:00;103522.13;;;4.57;100.00
32324;BME280;25666;44.350;9.222;2024-01-30T05:08:26;103525.56;;;4.64;100.00
32324;BME280;25666;44.350;9.222;2024-01-30T05:10:51;103514.66;;;4.69;100.00
32324;BME280;25666;44.350;9.222;2024-01-30T05:13:17;103519.56;;;4.67;100.00
32324;BME280;25666;44.350;9.222;2024-01-30T05:15:42;103524.97;;;4.62;100.00
32324;BME280;25666;44.350;9.222;2024-01-30T05:18:08;103525.38;;;4.54;100.00
32324;BME280;25666;44.350;9.222;2024-01-30T05:20:33;103524.88;;;4.45;100.00
32324;BME280;25666;44.350;9.222;2024-01-30T05:22:59;103524.88;;;4.57;100.00
32324;BME280;25666;44.350;9.222;2024-01-30T05:25:25;103519.50;;;4.50;100.00
32324;BME280;25666;44.350;9.222;2024-01-30T05:27:50;103530.16;;;4.58;100.00
32324;BME280;25666;44.350;9.222;2024-01-30T05:30:16;103534.13;;;4.51;100.00
32324;BME280;25666;44.350;9.222;2024-01-30T05:32:41;103531.00;;;4.47;100.00
32324;BME280;25666;44.350;9.222;2024-01-30T05:35:07;103530.41;;;4.45;100.00
32324;BME280;25666;44.350;9.222;2024-01-30T05:37:35;103536.03;;;4.50;100.00
32324;BME280;25666;44.350;9.222;2024-01-30T05:40:01;103534.00;;;4.46;100.00
32324;BME280;25666;44.350;9.222;2024-01-30T05:42:26;103539.66;;;4.51;100.00
32324;BME280;25666;44.350;9.222;2024-01-30T05:44:52;103537.84;;;4.45;100.00
32324;BME280;25666;44.350;9.222;2024-01-30T05:47:17;103540.72;;;4.50;100.00
32324;BME280;25666;44.350;9.222;2024-01-30T05:49:43;103544.41;;;4.55;100.00
32324;BME280;25666;44.350;9.222;2024-01-30T05:52:08;103542.63;;;4.49;100.00
32324;BME280;25666;44.350;9.222;2024-01-30T05:54:35;103537.59;;;4.46;100.00
32324;BME280;25666;44.350;9.222;2024-01-30T05:57:00;103539.03;;;4.37;100.00
32324;BME280;25666;44.350;9.222;2024-01-30T05:59:26;103542.38;;;4.39;100.00
32324;BME280;25666;44.350;9.222;2024-01-30T06:01:51;103542.16;;;4.41;100.00
32324;BME280;25666;44.350;9.222;2024-01-30T06:04:17;103543.50;;;4.38;100.00
32324;BME280;25666;44.350;9.222;2024-01-30T06:06:42;103536.28;;;4.49;100.00
32324;BME280;25666;44.350;9.222;2024-01-30T06:09:08;103537.00;;;4.44;100.00
32324;BME280;25666;44.350;9.222;2024-01-30T06:11:38;103537.97;;;4.50;100.00
32324;BME280;25666;44.350;9.222;2024-01-30T06:14:03;103543.84;;;4.53;100.00
32324;BME280;25666;44.350;9.222;2024-01-30T06:16:29;103533.16;;;4.57;100.00
32324;BME280;25666;44.350;9.222;2024-01-30T06:18:57;103541.44;;;4.57;100.00
32324;BME280;25666;44.350;9.222;2024-01-30T06:21:25;103539.38;;;4.52;100.00
32324;BME280;25666;44.350;9.222;2024-01-30T06:23:50;103542.41;;;4.51;100.00
32324;BME280;25666;44.350;9.222;2024-01-30T06:26:16;103545.50;;;4.43;100.00
32324;BME280;25666;44.350;9.222;2024-01-30T06:28:41;103538.56;;;4.40;100.00
32324;BME280;25666;44.350;9.222;2024-01-30T06:31:07;103543.00;;;4.41;100.00
32324;BME280;25666;44.350;9.222;2024-01-30T06:33:32;103535.09;;;4.33;100.00
32324;BME280;25666;44.350;9.222;2024-01-30T06:35:58;103552.22;;;4.23;100.00
32324;BME280;25666;44.350;9.222;2024-01-30T06:38:23;103554.13;;;4.23;100.00
32324;BME280;25666;44.350;9.222;2024-01-30T06:40:49;103549.34;;;4.18;100.00
32324;BME280;25666;44.350;9.222;2024-01-30T06:43:15;103547.69;;;4.29;100.00
32324;BME280;25666;44.350;9.222;2024-01-30T06:45:40;103553.31;;;4.34;100.00
32324;BME280;25666;44.350;9.222;2024-01-30T06:48:08;103550.56;;;4.34;100.00
32324;BME280;25666;44.350;9.222;2024-01-30T06:50:34;103552.47;;;4.22;100.00
32324;BME280;25666;44.350;9.222;2024-01-30T06:52:59;103547.44;;;4.30;100.00
32324;BME280;25666;44.350;9.222;2024-01-30T06:55:25;103550.06;;;4.37;100.00
32324;BME280;25666;44.350;9.222;2024-01-30T06:57:50;103555.22;;;4.45;100.00
32324;BME280;25666;44.350;9.222;2024-01-30T07:00:16;103551.00;;;4.54;100.00
32324;BME280;25666;44.350;9.222;2024-01-30T07:02:42;103551.63;;;4.56;100.00
32324;BME280;25666;44.350;9.222;2024-01-30T07:05:07;103553.66;;;4.49;100.00
32324;BME280;25666;44.350;9.222;2024-01-30T07:07:33;103551.13;;;4.59;100.00
32324;BME280;25666;44.350;9.222;2024-01-30T07:09:58;103554.00;;;4.64;100.00
32324;BME280;25666;44.350;9.222;2024-01-30T07:12:24;103547.88;;;4.74;100.00
32324;BME280;25666;44.350;9.222;2024-01-30T07:14:51;103553.41;;;4.62;100.00
32324;BME280;25666;44.350;9.222;2024-01-30T07:17:17;103552.19;;;4.70;100.00
32324;BME280;25666;44.350;9.222;2024-01-30T07:19:42;103557.56;;;4.76;100.00
32324;BME280;25666;44.350;9.222;2024-01-30T07:22:08;103553.97;;;4.88;100.00
32324;BME280;25666;44.350;9.222;2024-01-30T07:24:34;103559.22;;;4.89;100.00
32324;BME280;25666;44.350;9.222;2024-01-30T07:27:00;103565.59;;;4.90;100.00
32324;BME280;25666;44.350;9.222;2024-01-30T07:29:25;103568.69;;;4.93;100.00
32324;BME280;25666;44.350;9.222;2024-01-30T07:31:51;103568.91;;;5.03;100.00
32324;BME280;25666;44.350;9.222;2024-01-30T07:34:17;103571.19;;;5.06;100.00
32324;BME280;25666;44.350;9.222;2024-01-30T07:36:42;103565.03;;;5.16;100.00
32324;BME280;25666;44.350;9.222;2024-01-30T07:39:08;103576.38;;;5.31;100.00
32324;BME280;25666;44.350;9.222;2024-01-30T07:41:35;103579.34;;;5.41;100.00
32324;BME280;25666;44.350;9.222;2024-01-30T07:44:00;103577.28;;;5.48;100.00
32324;BME280;25666;44.350;9.222;2024-01-30T07:46:26;103569.81;;;5.49;100.00
32324;BME280;25666;44.350;9.222;2024-01-30T07:48:52;103576.38;;;5.59;100.00
32324;BME280;25666;44.350;9.222;2024-01-30T07:51:17;103580.56;;;5.62;100.00
32324;BME280;25666;44.350;9.222;2024-01-30T07:53:43;103582.59;;;5.66;100.00
32324;BME280;25666;44.350;9.222;2024-01-30T07:56:08;103588.06;;;5.78;100.00
32324;BME280;25666;44.350;9.222;2024-01-30T07:58:34;103587.31;;;5.82;100.00
32324;BME280;25666;44.350;9.222;2024-01-30T08:00:59;103586.66;;;5.92;100.00
32324;BME280;25666;44.350;9.222;2024-01-30T08:03:26;103593.97;;;5.98;100.00
32324;BME280;25666;44.350;9.222;2024-01-30T08:05:51;103589.94;;;6.06;100.00
32324;BME280;25666;44.350;9.222;2024-01-30T08:08:17;103597.25;;;6.12;100.00
32324;BME280;25666;44.350;9.222;2024-01-30T08:10:42;103593.41;;;6.13;100.00
32324;BME280;25666;44.350;9.222;2024-01-30T08:13:08;103605.94;;;6.20;100.00
32324;BME280;25666;44.350;9.222;2024-01-30T08:15:34;103588.88;;;6.23;100.00
32324;BME280;25666;44.350;9.222;2024-01-30T08:18:00;103591.44;;;6.30;100.00
32324;BME280;25666;44.350;9.222;2024-01-30T08:20:26;103600.41;;;6.37;100.00
32324;BME280;25666;44.350;9.222;2024-01-30T08:22:52;103599.06;;;6.39;100.00
32324;BME280;25666;44.350;9.222;2024-01-30T08:25:17;103610.31;;;6.50;100.00
32324;BME280;25666;44.350;9.222;2024-01-30T08:27:44;103604.25;;;6.53;100.00
32324;BME280;25666;44.350;9.222;2024-01-30T08:30:10;103603.50;;;6.57;100.00
32324;BME280;25666;44.350;9.222;2024-01-30T08:32:35;103612.97;;;6.61;100.00
32324;BME280;25666;44.350;9.222;2024-01-30T08:35:01;103603.97;;;6.71;100.00
32324;BME280;25666;44.350;9.222;2024-01-30T08:37:29;103609.16;;;6.84;100.00
32324;BME280;25666;44.350;9.222;2024-01-30T08:39:55;103602.06;;;6.93;100.00
32324;BME280;25666;44.350;9.222;2024-01-30T08:42:20;103604.75;;;7.05;100.00
32324;BME280;25666;44.350;9.222;2024-01-30T08:44:48;103599.38;;;7.20;100.00
32324;BME280;25666;44.350;9.222;2024-01-30T08:47:18;103608.03;;;7.23;100.00
32324;BME280;25666;44.350;9.222;2024-01-30T08:49:44;103601.69;;;7.28;100.00
32324;BME280;25666;44.350;9.222;2024-01-30T08:52:10;103595.72;;;7.36;100.00
32324;BME280;25666;44.350;9.222;2024-01-30T08:54:36;103604.44;;;7.49;100.00
32324;BME280;25666;44.350;9.222;2024-01-30T08:57:01;103599.56;;;7.62;100.00
32324;BME280;25666;44.350;9.222;2024-01-30T08:59:27;103593.91;;;7.73;100.00
32324;BME280;25666;44.350;9.222;2024-01-30T09:01:53;103598.97;;;7.81;100.00
32324;BME280;25666;44.350;9.222;2024-01-30T09:04:23;103598.78;;;7.93;100.00
32324;BME280;25666;44.350;9.222;2024-01-30T09:06:49;103602.22;;;8.05;100.00
32324;BME280;25666;44.350;9.222;2024-01-30T09:09:14;103598.44;;;8.16;100.00
32324;BME280;25666;44.350;9.222;2024-01-30T09:11:40;103606.63;;;8.28;100.00
32324;BME280;25666;44.350;9.222;2024-01-30T09:14:06;103609.44;;;8.33;100.00
32324;BME280;25666;44.350;9.222;2024-01-30T09:16:32;103604.53;;;8.45;100.00
32324;BME280;25666;44.350;9.222;2024-01-30T09:18:57;103603.78;;;8.54;100.00
32324;BME280;25666;44.350;9.222;2024-01-30T09:21:23;103608.03;;;8.72;100.00
32324;BME280;25666;44.350;9.222;2024-01-30T09:23:48;103617.53;;;8.81;100.00
32324;BME280;25666;44.350;9.222;2024-01-30T09:26:14;103608.97;;;8.88;100.00
32324;BME280;25666;44.350;9.222;2024-01-30T09:28:40;103607.63;;;8.95;100.00
32324;BME280;25666;44.350;9.222;2024-01-30T09:31:11;103614.66;;;9.13;100.00
32324;BME280;25666;44.350;9.222;2024-01-30T09:33:36;103613.56;;;9.19;100.00
32324;BME280;25666;44.350;9.222;2024-01-30T09:36:02;103617.25;;;9.30;100.00
32324;BME280;25666;44.350;9.222;2024-01-30T09:38:28;103623.66;;;9.35;100.00
32324;BME280;25666;44.350;9.222;2024-01-30T09:40:54;103613.97;;;9.53;100.00
32324;BME280;25666;44.350;9.222;2024-01-30T09:43:23;103619.56;;;9.63;100.00
32324;BME280;25666;44.350;9.222;2024-01-30T09:45:53;103621.00;;;9.81;100.00
32324;BME280;25666;44.350;9.222;2024-01-30T09:48:19;103620.47;;;9.89;100.00
32324;BME280;25666;44.350;9.222;2024-01-30T09:50:45;103635.22;;;9.94;100.00
32324;BME280;25666;44.350;9.222;2024-01-30T09:53:13;103631.88;;;10.02;100.00
32324;BME280;25666;44.350;9.222;2024-01-30T09:55:42;103633.25;;;10.00;100.00
32324;BME280;25666;44.350;9.222;2024-01-30T09:58:08;103639.41;;;10.07;100.00
32324;BME280;25666;44.350;9.222;2024-01-30T10:00:34;103629.16;;;10.17;100.00
32324;BME280;25666;44.350;9.222;2024-01-30T10:02:59;103631.94;;;10.17;100.00
32324;BME280;25666;44.350;9.222;2024-01-30T10:05:31;103638.63;;;10.27;100.00
32324;BME280;25666;44.350;9.222;2024-01-30T10:07:59;103625.25;;;10.29;100.00
32324;BME280;25666;44.350;9.222;2024-01-30T10:10:25;103627.78;;;10.30;100.00
32324;BME280;25666;44.350;9.222;2024-01-30T10:12:51;103624.69;;;10.32;100.00
32324;BME280;25666;44.350;9.222;2024-01-30T10:15:17;103618.03;;;10.43;100.00
32324;BME280;25666;44.350;9.222;2024-01-30T10:17:44;103623.31;;;10.49;100.00
32324;BME280;25666;44.350;9.222;2024-01-30T10:20:10;103623.84;;;10.51;100.00
32324;BME280;25666;44.350;9.222;2024-01-30T10:22:36;103624.69;;;10.57;100.00
32324;BME280;25666;44.350;9.222;2024-01-30T10:25:02;103621.59;;;10.63;100.00
32324;BME280;25666;44.350;9.222;2024-01-30T10:27:28;103612.41;;;10.73;100.00
32324;BME280;25666;44.350;9.222;2024-01-30T10:29:55;103618.81;;;10.73;100.00
32324;BME280;25666;44.350;9.222;2024-01-30T10:32:21;103609.31;;;10.74;100.00
32324;BME280;25666;44.350;9.222;2024-01-30T10:34:47;103610.44;;;10.84;100.00
32324;BME280;25666;44.350;9.222;2024-01-30T10:37:12;103603.19;;;10.77;100.00
32324;BME280;25666;44.350;9.222;2024-01-30T10:39:42;103604.53;;;10.90;100.00
32324;BME280;25666;44.350;9.222;2024-01-30T10:42:17;103609.81;;;10.97;100.00
32324;BME280;25666;44.350;9.222;2024-01-30T10:47:35;103602.00;;;11.04;100.00
32324;BME280;25666;44.350;9.222;2024-01-30T10:50:02;103598.94;;;11.05;100.00
32324;BME280;25666;44.350;9.222;2024-01-30T10:52:28;103590.53;;;11.10;100.00
32324;BME280;25666;44.350;9.222;2024-01-30T10:54:55;103586.06;;;11.09;100.00
32324;BME280;25666;44.350;9.222;2024-01-30T10:57:28;103589.72;;;11.10;100.00
32324;BME280;25666;44.350;9.222;2024-01-30T10:59:57;103586.66;;;11.11;100.00
32324;BME280;25666;44.350;9.222;2024-01-30T11:02:23;103583.28;;;11.14;100.00
32324;BME280;25666;44.350;9.222;2024-01-30T11:04:55;103581.03;;;11.16;100.00
32324;BME280;25666;44.350;9.222;2024-01-30T11:07:25;103581.03;;;11.16;100.00
32324;BME280;25666;44.350;9.222;2024-01-30T11:12:22;103570.75;;;11.12;100.00
32324;BME280;25666;44.350;9.222;2024-01-30T11:14:49;103574.66;;;11.11;100.00
32324;BME280;25666;44.350;9.222;2024-01-30T11:17:15;103575.19;;;11.13;100.00
32324;BME280;25666;44.350;9.222;2024-01-30T11:19:41;103569.88;;;11.16;100.00
32324;BME280;25666;44.350;9.222;2024-01-30T11:22:07;103571.56;;;11.17;100.00
32324;BME280;25666;44.350;9.222;2024-01-30T11:24:42;103561.47;;;11.26;100.00
32324;BME280;25666;44.350;9.222;2024-01-30T11:27:09;103550.88;;;11.28;100.00
32324;BME280;25666;44.350;9.222;2024-01-30T11:29:35;103545.00;;;11.30;100.00
32324;BME280;25666;44.350;9.222;2024-01-30T11:32:01;103545.56;;;11.32;100.00
32324;BME280;25666;44.350;9.222;2024-01-30T11:34:27;103549.19;;;11.33;100.00
32324;BME280;25666;44.350;9.222;2024-01-30T11:36:58;103545.00;;;11.30;100.00
32324;BME280;25666;44.350;9.222;2024-01-30T11:39:25;103540.50;;;11.34;100.00
32324;BME280;25666;44.350;9.222;2024-01-30T11:41:52;103535.47;;;11.41;100.00
32324;BME280;25666;44.350;9.222;2024-01-30T11:44:22;103529.31;;;11.44;100.00
32324;BME280;25666;44.350;9.222;2024-01-30T11:46:48;103540.75;;;11.43;100.00
32324;BME280;25666;44.350;9.222;2024-01-30T11:49:14;103523.19;;;11.42;100.00
32324;BME280;25666;44.350;9.222;2024-01-30T11:51:40;103530.34;;;11.53;100.00
32324;BME280;25666;44.350;9.222;2024-01-30T11:54:07;103523.66;;;11.54;100.00
32324;BME280;25666;44.350;9.222;2024-01-30T11:56:33;103519.19;;;11.53;100.00
32324;BME280;25666;44.350;9.222;2024-01-30T11:58:58;103522.81;;;11.59;100.00
32324;BME280;25666;44.350;9.222;2024-01-30T12:01:26;103516.38;;;11.58;100.00
32324;BME280;25666;44.350;9.222;2024-01-30T12:03:52;103515.00;;;11.56;100.00
32324;BME280;25666;44.350;9.222;2024-01-30T12:06:17;103511.88;;;11.62;100.00
32324;BME280;25666;44.350;9.222;2024-01-30T12:08:43;103508.81;;;11.64;100.00
32324;BME280;25666;44.350;9.222;2024-01-30T12:11:19;103513.03;;;11.61;100.00
32324;BME280;25666;44.350;9.222;2024-01-30T12:13:44;103513.28;;;11.60;100.00
32324;BME280;25666;44.350;9.222;2024-01-30T12:16:10;103512.69;;;11.68;100.00
32324;BME280;25666;44.350;9.222;2024-01-30T12:18:36;103507.69;;;11.65;100.00
32324;BME280;25666;44.350;9.222;2024-01-30T12:21:01;103508.22;;;11.72;100.00
32324;BME280;25666;44.350;9.222;2024-01-30T12:23:28;103499.00;;;11.66;100.00
32324;BME280;25666;44.350;9.222;2024-01-30T12:25:53;103497.34;;;11.65;100.00
32324;BME280;25666;44.350;9.222;2024-01-30T12:28:20;103498.19;;;11.71;100.00
32324;BME280;25666;44.350;9.222;2024-01-30T12:30:45;103501.22;;;11.69;100.00
32324;BME280;25666;44.350;9.222;2024-01-30T12:33:16;103493.09;;;11.78;100.00
32324;BME280;25666;44.350;9.222;2024-01-30T12:35:45;103493.44;;;11.71;100.00
32324;BME280;25666;44.350;9.222;2024-01-30T12:38:12;103487.50;;;11.78;100.00
32324;BME280;25666;44.350;9.222;2024-01-30T12:40:37;103493.66;;;11.75;100.00
32324;BME280;25666;44.350;9.222;2024-01-30T12:43:03;103485.03;;;11.76;100.00
32324;BME280;25666;44.350;9.222;2024-01-30T12:45:29;103489.19;;;11.79;100.00
32324;BME280;25666;44.350;9.222;2024-01-30T12:47:55;103493.31;;;11.87;100.00